Time;durP1;ratioP1;P1;durP2;ratioP2;P2;SDS_P1;SDS_P2;PMS_P1;PMS_P2;Temp;Humidity;BMP_temperature;BMP_pressure;BME280_temperature;BME280_humidity;BME280_pressure;Samples;Min_cycle;Max_cycle;Signal;HPM_P1;HPM_P2
2023/03/28 00:00:55;;;;;;;0.20;0.20;;;;;;;;;;5045692;28;20025;-86
2023/03/28 00:03:21;;;;;;;1.73;0.90;;;;;;;;;;5039226;28;20025;-84
2023/03/28 00:05:49;;;;;;;0.40;0.40;;;;;;;;;;5055064;28;20032;-83
2023/03/28 00:08:15;;;;;;;1.30;0.70;;;;;;;;;;5054242;28;20037;-85
2023/03/28 00:10:41;;;;;;;0.70;0.47;;;;;;;;;;5030028;28;20139;-87
2023/03/28 00:13:07;;;;;;;4.30;0.88;;;;;;;;;;5054334;28;20095;-82
2023/03/28 00:15:36;;;;;;;0.47;0.47;;;;;;;;;;5055472;28;20428;-82
2023/03/28 00:18:04;;;;;;;0.77;0.70;;;;;;;;;;5030655;28;20546;-84
2023/03/28 00:20:30;;;;;;;0.63;0.50;;;;;;;;;;5050716;28;20262;-83
2023/03/28 00:22:56;;;;;;;0.40;0.40;;;;;;;;;;5048820;28;20108;-82
2023/03/28 00:25:22;;;;;;;0.40;0.40;;;;;;;;;;5055364;28;20056;-83
2023/03/28 00:27:48;;;;;;;0.40;0.40;;;;;;;;;;5055150;28;20025;-82
2023/03/28 00:30:13;;;;;;;0.85;0.77;;;;;;;;;;5036823;28;20055;-84
2023/03/28 00:32:39;;;;;;;0.40;0.40;;;;;;;;;;5051955;28;20072;-84
2023/03/28 00:35:05;;;;;;;1.73;1.17;;;;;;;;;;5049248;28;20055;-81
2023/03/28 00:37:31;;;;;;;0.85;0.70;;;;;;;;;;5041091;28;20473;-80
2023/03/28 00:39:58;;;;;;;0.75;0.45;;;;;;;;;;5043307;28;20481;-81
2023/03/28 00:42:24;;;;;;;0.65;0.60;;;;;;;;;;5027809;28;20025;-82
2023/03/28 00:44:55;;;;;;;0.60;0.60;;;;;;;;;;5030122;28;20075;-82
2023/03/28 00:47:57;;;;;;;0.85;0.63;;;;;;;;;;5053506;28;20028;-82
2023/03/28 00:50:29;;;;;;;0.70;0.70;;;;;;;;;;5052856;28;20091;-84
2023/03/28 00:53:13;;;;;;;0.50;0.50;;;;;;;;;;5035865;28;20060;-82
2023/03/28 00:55:44;;;;;;;0.75;0.70;;;;;;;;;;5051266;28;20075;-83
2023/03/28 00:58:14;;;;;;;1.48;0.93;;;;;;;;;;5035344;28;20033;-82
2023/03/28 01:00:45;;;;;;;1.00;0.70;;;;;;;;;;5025912;28;20032;-82
2023/03/28 01:03:14;;;;;;;1.42;0.73;;;;;;;;;;5046788;28;20108;-82
2023/03/28 01:05:42;;;;;;;1.52;1.10;;;;;;;;;;5043934;28;20049;-81
2023/03/28 01:08:29;;;;;;;1.65;1.08;;;;;;;;;;5027642;28;20432;-83
2023/03/28 01:10:55;;;;;;;1.15;1.02;;;;;;;;;;5047207;28;20025;-83
2023/03/28 01:13:27;;;;;;;1.45;0.90;;;;;;;;;;5044964;28;20037;-83
2023/03/28 01:15:52;;;;;;;0.88;0.80;;;;;;;;;;5032575;28;20025;-84
2023/03/28 01:18:21;;;;;;;1.10;0.90;;;;;;;;;;5039717;28;20440;-83
2023/03/28 01:20:59;;;;;;;1.48;0.95;;;;;;;;;;5031485;28;20462;-82
2023/03/28 01:24:15;;;;;;;1.38;0.65;;;;;;;;;;5047536;28;20033;-81
2023/03/28 01:26:49;;;;;;;0.70;0.70;;;;;;;;;;4977411;28;20036;-84
2023/03/28 01:29:48;;;;;;;1.52;1.15;;;;;;;;;;5042005;28;20060;-85
2023/03/28 01:32:41;;;;;;;0.65;0.57;;;;;;;;;;5042026;28;20044;-82
2023/03/28 01:35:25;;;;;;;1.38;0.90;;;;;;;;;;5035015;28;20385;-82
2023/03/28 01:38:15;;;;;;;1.17;0.90;;;;;;;;;;5036657;28;20029;-88
2023/03/28 01:41:04;;;;;;;1.15;1.05;;;;;;;;;;5052417;28;20035;-84
2023/03/28 01:43:56;;;;;;;1.43;0.67;;;;;;;;;;5045505;28;20059;-82
2023/03/28 01:46:46;;;;;;;0.70;0.70;;;;;;;;;;5045824;28;20389;-85
2023/03/28 01:49:37;;;;;;;0.90;0.82;;;;;;;;;;5053678;28;20052;-84
2023/03/28 01:52:19;;;;;;;1.45;0.80;;;;;;;;;;5052819;28;20028;-84
2023/03/28 01:54:59;;;;;;;1.60;0.98;;;;;;;;;;5053508;28;20056;-84
2023/03/28 01:57:40;;;;;;;0.88;0.85;;;;;;;;;;5053826;28;20029;-83
2023/03/28 02:00:18;;;;;;;1.30;1.00;;;;;;;;;;5052881;28;20477;-82
2023/03/28 02:03:02;;;;;;;3.17;2.05;;;;;;;;;;5052322;28;20473;-81
2023/03/28 02:05:32;;;;;;;1.33;0.80;;;;;;;;;;5034137;28;20022;-82
2023/03/28 02:07:58;;;;;;;;;;;;;;;;;;5049889;28;20588;-85
2023/03/28 02:10:26;;;;;;;1.67;1.00;;;;;;;;;;5037968;28;19912;-82
2023/03/28 02:13:21;;;;;;;0.50;0.50;;;;;;;;;;5056939;28;20079;-82
2023/03/28 02:15:52;;;;;;;4.47;0.80;;;;;;;;;;5036359;28;20059;-84
2023/03/28 02:18:23;;;;;;;0.95;0.75;;;;;;;;;;5058097;28;20542;-82
2023/03/28 02:20:53;;;;;;;2.58;1.70;;;;;;;;;;5056766;28;20021;-82
2023/03/28 02:23:36;;;;;;;1.65;1.10;;;;;;;;;;5057388;28;20021;-83
2023/03/28 02:26:01;;;;;;;2.15;1.48;;;;;;;;;;5056696;28;20036;-84
2023/03/28 02:28:30;;;;;;;0.95;0.63;;;;;;;;;;5055684;28;20040;-84
2023/03/28 02:30:56;;;;;;;0.95;0.90;;;;;;;;;;5056287;28;20389;-83
2023/03/28 02:33:36;;;;;;;1.67;0.63;;;;;;;;;;5037269;28;20053;-82
2023/03/28 02:36:14;;;;;;;0.57;0.57;;;;;;;;;;5054621;28;20098;-85
2023/03/28 02:39:06;;;;;;;1.95;1.17;;;;;;;;;;5036843;28;20033;-83
2023/03/28 02:41:40;;;;;;;1.75;0.90;;;;;;;;;;5036683;28;20078;-85
2023/03/28 02:44:32;;;;;;;1.92;0.95;;;;;;;;;;5053425;28;20385;-84
2023/03/28 02:47:03;;;;;;;0.60;0.55;;;;;;;;;;5019683;28;20078;-83
2023/03/28 02:49:42;;;;;;;1.70;1.17;;;;;;;;;;5036386;28;20029;-85
2023/03/28 02:52:24;;;;;;;0.52;0.50;;;;;;;;;;5054065;28;20151;-83
2023/03/28 02:55:18;;;;;;;0.75;0.75;;;;;;;;;;5043362;28;20573;-83
2023/03/28 02:57:49;;;;;;;0.95;0.82;;;;;;;;;;5037024;28;20056;-83
2023/03/28 03:00:18;;;;;;;0.80;0.57;;;;;;;;;;5035959;28;20511;-84
2023/03/28 03:02:48;;;;;;;1.13;1.00;;;;;;;;;;5030674;28;20024;-82
2023/03/28 03:05:13;;;;;;;;;;;;;;;;;;5039046;28;20385;-84
2023/03/28 03:07:38;;;;;;;1.88;0.73;;;;;;;;;;5056130;28;19917;-84
2023/03/28 03:10:07;;;;;;;1.65;1.00;;;;;;;;;;5055194;28;20029;-82
2023/03/28 03:12:33;;;;;;;0.77;0.65;;;;;;;;;;5034302;28;20025;-83
2023/03/28 03:15:00;;;;;;;0.30;0.30;;;;;;;;;;5043091;28;20057;-85
2023/03/28 03:17:27;;;;;;;0.98;0.85;;;;;;;;;;5055078;28;20108;-85
2023/03/28 03:19:52;;;;;;;1.45;0.85;;;;;;;;;;5035955;28;20060;-84
2023/03/28 03:22:18;;;;;;;1.67;1.20;;;;;;;;;;5036394;28;20476;-83
2023/03/28 03:24:43;;;;;;;2.05;0.82;;;;;;;;;;5051328;28;20065;-83
2023/03/28 03:27:09;;;;;;;0.57;0.55;;;;;;;;;;5054769;28;20052;-82
2023/03/28 03:29:34;;;;;;;0.82;0.70;;;;;;;;;;5036212;28;20462;-82
2023/03/28 03:32:00;;;;;;;0.65;0.55;;;;;;;;;;5054150;28;20025;-82
2023/03/28 03:34:25;;;;;;;0.57;0.45;;;;;;;;;;5005873;28;1127710;-85
2023/03/28 03:36:55;;;;;;;0.95;0.82;;;;;;;;;;5038060;28;20091;-83
2023/03/28 03:39:20;;;;;;;1.05;0.80;;;;;;;;;;5056735;28;20049;-85
2023/03/28 03:41:46;;;;;;;0.70;0.50;;;;;;;;;;5055826;28;20067;-83
2023/03/28 03:44:12;;;;;;;1.10;0.80;;;;;;;;;;5037174;28;20039;-84
2023/03/28 03:46:37;;;;;;;1.08;0.98;;;;;;;;;;5049790;28;20055;-84
2023/03/28 03:49:02;;;;;;;0.57;0.57;;;;;;;;;;5052312;28;20060;-86
2023/03/28 03:51:28;;;;;;;1.27;0.85;;;;;;;;;;5032565;28;20028;-85
2023/03/28 03:53:53;;;;;;;0.40;0.40;;;;;;;;;;5037361;28;20031;-84
2023/03/28 03:56:20;;;;;;;0.57;0.50;;;;;;;;;;5036689;28;20027;-85
2023/03/28 03:58:45;;;;;;;0.77;0.77;;;;;;;;;;5037643;28;20162;-85
2023/03/28 04:01:12;;;;;;;1.50;1.23;;;;;;;;;;5036718;28;20068;-82
2023/03/28 04:03:39;;;;;;;1.63;1.30;;;;;;;;;;5036414;28;20036;-84
2023/03/28 04:06:05;;;;;;;0.55;0.55;;;;;;;;;;5053594;28;20025;-83
2023/03/28 04:08:31;;;;;;;0.32;0.30;;;;;;;;;;5055735;28;20033;-86
2023/03/28 04:10:56;;;;;;;0.68;0.68;;;;;;;;;;5051619;28;20385;-84
2023/03/28 04:13:21;;;;;;;1.38;1.27;;;;;;;;;;5029827;28;20031;-84
2023/03/28 04:15:47;;;;;;;1.08;0.90;;;;;;;;;;5049714;28;20033;-82
2023/03/28 04:18:14;;;;;;;1.30;1.17;;;;;;;;;;5054090;28;20455;-86
2023/03/28 04:20:40;;;;;;;1.70;1.02;;;;;;;;;;5048630;28;20032;-83
2023/03/28 04:23:07;;;;;;;1.90;1.02;;;;;;;;;;5045907;28;20353;-85
2023/03/28 04:25:32;;;;;;;0.52;0.52;;;;;;;;;;5047862;28;20025;-83
2023/03/28 04:28:00;;;;;;;0.82;0.82;;;;;;;;;;5034861;28;20465;-87
2023/03/28 04:30:26;;;;;;;1.48;1.30;;;;;;;;;;5029578;28;20028;-86
2023/03/28 04:32:53;;;;;;;0.90;0.80;;;;;;;;;;5052021;28;20041;-86
2023/03/28 04:35:19;;;;;;;1.50;1.10;;;;;;;;;;5047868;28;20024;-88
2023/03/28 04:37:46;;;;;;;1.75;1.20;;;;;;;;;;5033502;28;20025;-86
2023/03/28 04:40:15;;;;;;;1.17;0.98;;;;;;;;;;5053588;28;20439;-84
2023/03/28 04:42:41;;;;;;;2.17;1.13;;;;;;;;;;5052111;28;20029;-81
2023/03/28 04:45:07;;;;;;;1.30;0.93;;;;;;;;;;5032716;28;20825;-85
2023/03/28 04:47:33;;;;;;;0.95;0.60;;;;;;;;;;5051572;28;20096;-84
2023/03/28 04:49:59;;;;;;;0.85;0.85;;;;;;;;;;5033754;28;20512;-85
2023/03/28 04:52:25;;;;;;;0.43;0.43;;;;;;;;;;5030898;28;20033;-83
2023/03/28 04:54:50;;;;;;;0.70;0.68;;;;;;;;;;5028985;28;20020;-81
2023/03/28 04:57:16;;;;;;;0.93;0.73;;;;;;;;;;5050217;28;20033;-81
2023/03/28 04:59:42;;;;;;;1.70;1.30;;;;;;;;;;5034147;28;20032;-83
2023/03/28 05:02:08;;;;;;;1.52;1.30;;;;;;;;;;5051892;28;20376;-81
2023/03/28 05:04:34;;;;;;;1.30;0.93;;;;;;;;;;5051902;28;20017;-82
2023/03/28 05:06:59;;;;;;;2.65;1.30;;;;;;;;;;5033209;28;20035;-82
2023/03/28 05:09:25;;;;;;;2.67;1.65;;;;;;;;;;5036735;28;20036;-81
2023/03/28 05:11:50;;;;;;;0.73;0.73;;;;;;;;;;5049586;28;20374;-83
2023/03/28 05:14:16;;;;;;;1.90;0.80;;;;;;;;;;5039750;28;20150;-83
2023/03/28 05:16:41;;;;;;;3.63;0.95;;;;;;;;;;5044329;28;20159;-80
2023/03/28 05:19:08;;;;;;;0.80;0.70;;;;;;;;;;5045458;28;20025;-83
2023/03/28 05:21:34;;;;;;;1.80;1.08;;;;;;;;;;5045371;28;20025;-84
2023/03/28 05:24:00;;;;;;;1.13;0.73;;;;;;;;;;5051201;28;20074;-81
2023/03/28 05:26:26;;;;;;;2.63;1.25;;;;;;;;;;5046759;28;20516;-81
2023/03/28 05:28:52;;;;;;;1.25;1.00;;;;;;;;;;5041745;28;20033;-83
2023/03/28 05:31:17;;;;;;;1.80;1.17;;;;;;;;;;5030702;28;20047;-84
2023/03/28 05:33:43;;;;;;;2.90;2.05;;;;;;;;;;5044130;28;20099;-82
2023/03/28 05:36:09;;;;;;;1.25;1.13;;;;;;;;;;5040615;28;20034;-80
2023/03/28 05:38:34;;;;;;;4.40;3.40;;;;;;;;;;5019559;28;20029;-83
2023/03/28 05:41:00;;;;;;;3.33;1.85;;;;;;;;;;5041633;28;20106;-82
2023/03/28 05:43:25;;;;;;;2.20;1.63;;;;;;;;;;5039226;28;20021;-81
2023/03/28 05:45:51;;;;;;;1.67;1.13;;;;;;;;;;5039152;28;20064;-83
2023/03/28 05:48:17;;;;;;;2.33;2.13;;;;;;;;;;5038635;28;20100;-85
2023/03/28 05:50:43;;;;;;;3.38;1.52;;;;;;;;;;5041714;28;20029;-85
2023/03/28 05:53:10;;;;;;;2.42;1.25;;;;;;;;;;5024175;28;20037;-85
2023/03/28 05:55:36;;;;;;;1.35;1.25;;;;;;;;;;5041693;28;20043;-83
2023/03/28 05:58:02;;;;;;;4.40;3.13;;;;;;;;;;5025748;28;20029;-84
2023/03/28 06:00:28;;;;;;;5.05;2.50;;;;;;;;;;5043947;28;20021;-83
2023/03/28 06:02:54;;;;;;;4.00;2.53;;;;;;;;;;5039559;28;20029;-84
2023/03/28 06:05:20;;;;;;;4.15;2.17;;;;;;;;;;5025726;28;20029;-85
2023/03/28 06:07:45;;;;;;;6.90;3.25;;;;;;;;;;5023768;28;20068;-82
2023/03/28 06:10:12;;;;;;;2.08;1.50;;;;;;;;;;5036423;28;20037;-82
2023/03/28 06:12:37;;;;;;;2.72;1.65;;;;;;;;;;5041141;28;20028;-87
2023/03/28 06:15:03;;;;;;;2.58;1.60;;;;;;;;;;5044341;28;20412;-82
2023/03/28 06:17:29;;;;;;;4.20;2.90;;;;;;;;;;5019476;28;20033;-83
2023/03/28 06:19:54;;;;;;;3.70;2.13;;;;;;;;;;5035080;28;20029;-82
2023/03/28 06:22:20;;;;;;;3.67;2.72;;;;;;;;;;5042407;28;20476;-84
2023/03/28 06:24:45;;;;;;;4.05;3.00;;;;;;;;;;5038795;28;20038;-84
2023/03/28 06:27:11;;;;;;;1.98;1.75;;;;;;;;;;5042036;28;20032;-82
2023/03/28 06:29:36;;;;;;;2.88;2.65;;;;;;;;;;5037690;28;20083;-85
2023/03/28 06:32:03;;;;;;;4.35;3.40;;;;;;;;;;5039101;28;20057;-84
2023/03/28 06:34:28;;;;;;;2.58;2.13;;;;;;;;;;5049291;28;20044;-83
2023/03/28 06:36:53;;;;;;;3.13;2.03;;;;;;;;;;5050461;28;20040;-82
2023/03/28 06:39:19;;;;;;;5.68;3.17;;;;;;;;;;5050447;28;20029;-83
2023/03/28 06:41:44;;;;;;;1.67;1.40;;;;;;;;;;5050500;28;20147;-82
2023/03/28 06:44:10;;;;;;;3.90;2.80;;;;;;;;;;5033290;28;20033;-84
2023/03/28 06:46:35;;;;;;;4.07;2.33;;;;;;;;;;5049349;28;20064;-88
2023/03/28 06:49:02;;;;;;;6.13;2.83;;;;;;;;;;5029864;28;20078;-84
2023/03/28 06:51:27;;;;;;;3.78;2.45;;;;;;;;;;5050393;28;20032;-82
2023/03/28 06:53:53;;;;;;;3.65;2.42;;;;;;;;;;5048467;28;20033;-81
2023/03/28 06:56:18;;;;;;;5.75;5.18;;;;;;;;;;5034060;28;20028;-80
2023/03/28 06:58:44;;;;;;;5.00;2.88;;;;;;;;;;5036184;28;20037;-82
2023/03/28 07:01:09;;;;;;;3.70;2.70;;;;;;;;;;5053303;28;20088;-82
2023/03/28 07:03:35;;;;;;;5.80;3.75;;;;;;;;;;5053628;28;20033;-80
2023/03/28 07:06:08;;;;;;;5.95;3.95;;;;;;;;;;5035171;28;20487;-82
2023/03/28 07:08:33;;;;;;;4.85;2.05;;;;;;;;;;5043789;28;20106;-81
2023/03/28 07:10:59;;;;;;;5.38;3.88;;;;;;;;;;5026214;28;20076;-82
2023/03/28 07:13:24;;;;;;;3.55;2.67;;;;;;;;;;5050992;28;20022;-84
2023/03/28 07:16:03;;;;;;;7.40;2.95;;;;;;;;;;5032155;28;20024;-83
2023/03/28 07:18:29;;;;;;;7.10;4.90;;;;;;;;;;5044590;28;21532;-84
2023/03/28 07:20:54;;;;;;;3.65;2.85;;;;;;;;;;5046728;28;20037;-82
2023/03/28 07:23:20;;;;;;;6.15;4.22;;;;;;;;;;5035002;28;20031;-82
2023/03/28 07:25:45;;;;;;;9.85;3.97;;;;;;;;;;5050896;28;20029;-85
2023/03/28 07:28:11;;;;;;;3.72;2.65;;;;;;;;;;5035152;28;20108;-83
2023/03/28 07:30:36;;;;;;;4.05;2.33;;;;;;;;;;5035540;28;20024;-85
2023/03/28 07:33:02;;;;;;;7.47;4.25;;;;;;;;;;5049675;28;20406;-84
2023/03/28 07:35:27;;;;;;;4.95;3.42;;;;;;;;;;5048869;28;20029;-85
2023/03/28 07:37:52;;;;;;;1.65;1.40;;;;;;;;;;5037688;28;20029;-83
2023/03/28 07:40:18;;;;;;;7.57;4.25;;;;;;;;;;5043250;28;20021;-81
2023/03/28 07:42:43;;;;;;;5.43;4.20;;;;;;;;;;5035460;28;20020;-83
2023/03/28 07:45:09;;;;;;;6.38;3.75;;;;;;;;;;5035337;28;20063;-85
2023/03/28 07:47:35;;;;;;;10.35;6.10;;;;;;;;;;5052897;28;20028;-81
2023/03/28 07:50:00;;;;;;;14.90;10.93;;;;;;;;;;5029685;28;20026;-83
2023/03/28 07:52:26;;;;;;;12.55;10.35;;;;;;;;;;5038171;28;20021;-81
2023/03/28 07:54:52;;;;;;;8.95;6.63;;;;;;;;;;5034673;28;20203;-81
2023/03/28 07:57:18;;;;;;;6.68;4.57;;;;;;;;;;5049003;28;20032;-81
2023/03/28 07:59:43;;;;;;;17.35;11.38;;;;;;;;;;5052526;28;20021;-83
2023/03/28 08:02:11;;;;;;;12.70;7.75;;;;;;;;;;5047377;28;20053;-81
2023/03/28 08:04:36;;;;;;;3.83;3.45;;;;;;;;;;5033226;28;20051;-84
2023/03/28 08:07:02;;;;;;;3.28;2.95;;;;;;;;;;5049925;28;20025;-82
2023/03/28 08:09:27;;;;;;;6.40;3.25;;;;;;;;;;5050933;28;20024;-85
2023/03/28 08:11:52;;;;;;;5.80;4.30;;;;;;;;;;5034048;28;20025;-82
2023/03/28 08:14:18;;;;;;;5.65;2.40;;;;;;;;;;5051631;28;20166;-79
2023/03/28 08:16:45;;;;;;;5.78;4.25;;;;;;;;;;5052289;28;20499;-81
2023/03/28 08:19:11;;;;;;;20.45;2.03;;;;;;;;;;5052723;28;20483;-82
2023/03/28 08:21:38;;;;;;;3.38;2.20;;;;;;;;;;5034042;28;20112;-88
2023/03/28 08:24:06;;;;;;;3.25;2.38;;;;;;;;;;5052207;28;20029;-84
2023/03/28 08:26:32;;;;;;;2.85;2.28;;;;;;;;;;5052682;28;20020;-81
2023/03/28 08:28:57;;;;;;;5.18;3.05;;;;;;;;;;5031011;28;20362;-81
2023/03/28 08:31:25;;;;;;;11.55;4.63;;;;;;;;;;5043767;28;20025;-82
2023/03/28 08:33:52;;;;;;;5.03;4.28;;;;;;;;;;5048948;28;20041;-83
2023/03/28 08:36:19;;;;;;;6.03;3.67;;;;;;;;;;5051614;28;21681;-84
2023/03/28 08:38:48;;;;;;;4.45;2.50;;;;;;;;;;5049436;28;20032;-86
2023/03/28 08:41:32;;;;;;;2.63;2.03;;;;;;;;;;5051992;28;20029;-82
2023/03/28 08:44:07;;;;;;;5.35;2.83;;;;;;;;;;5050806;28;20036;-82
2023/03/28 08:46:35;;;;;;;3.97;2.75;;;;;;;;;;5050213;28;20033;-83
2023/03/28 08:49:06;;;;;;;4.22;2.47;;;;;;;;;;5017221;28;20043;-84
2023/03/28 08:51:34;;;;;;;6.97;2.88;;;;;;;;;;5034175;28;20033;-81
2023/03/28 08:54:10;;;;;;;2.72;1.90;;;;;;;;;;5051418;28;20044;-83
2023/03/28 08:56:44;;;;;;;8.38;4.35;;;;;;;;;;5048439;28;20096;-84
2023/03/28 08:59:12;;;;;;;4.22;2.63;;;;;;;;;;5049291;28;20103;-82
2023/03/28 09:01:38;;;;;;;6.13;3.75;;;;;;;;;;5051861;28;20023;-83
2023/03/28 09:04:04;;;;;;;2.65;1.83;;;;;;;;;;5051335;28;20473;-80
2023/03/28 09:06:39;;;;;;;5.00;3.08;;;;;;;;;;5032991;28;20037;-86
2023/03/28 09:09:17;;;;;;;4.28;3.30;;;;;;;;;;5030876;28;20025;-82
2023/03/28 09:11:48;;;;;;;2.92;2.40;;;;;;;;;;5030860;28;20036;-83
2023/03/28 09:14:28;;;;;;;3.58;2.58;;;;;;;;;;5049748;28;20385;-82
2023/03/28 09:17:00;;;;;;;4.65;3.17;;;;;;;;;;5047479;28;20029;-81
2023/03/28 09:19:50;;;;;;;2.45;2.22;;;;;;;;;;5048408;28;20036;-85
2023/03/28 09:22:37;;;;;;;5.95;3.60;;;;;;;;;;5030073;28;20033;-80
2023/03/28 09:25:31;;;;;;;3.10;1.90;;;;;;;;;;5049643;28;20037;-85
2023/03/28 09:28:08;;;;;;;5.82;3.70;;;;;;;;;;5022769;28;20102;-85
2023/03/28 09:30:38;;;;;;;3.08;1.85;;;;;;;;;;5031875;28;20127;-84
2023/03/28 09:33:13;;;;;;;1.67;1.52;;;;;;;;;;5036743;28;20037;-82
2023/03/28 09:35:40;;;;;;;2.20;1.80;;;;;;;;;;5051421;28;20025;-86
2023/03/28 09:38:21;;;;;;;2.50;2.10;;;;;;;;;;5031281;28;20029;-83
2023/03/28 09:40:51;;;;;;;5.35;3.83;;;;;;;;;;5034277;28;20481;-84
2023/03/28 09:43:19;;;;;;;12.10;3.13;;;;;;;;;;5032000;28;20373;-83
2023/03/28 09:46:02;;;;;;;4.47;3.05;;;;;;;;;;5046338;28;20025;-81
2023/03/28 09:48:30;;;;;;;2.40;2.20;;;;;;;;;;5050098;28;20029;-84
2023/03/28 09:50:57;;;;;;;5.35;3.40;;;;;;;;;;5050489;28;20029;-83
2023/03/28 09:53:35;;;;;;;3.83;3.20;;;;;;;;;;5049989;28;20492;-80
2023/03/28 09:56:10;;;;;;;1.98;1.60;;;;;;;;;;5047218;28;20021;-81
2023/03/28 09:58:51;;;;;;;5.53;3.83;;;;;;;;;;5032909;28;20033;-80
2023/03/28 10:01:44;;;;;;;4.50;2.50;;;;;;;;;;5034772;28;20032;-81
2023/03/28 10:04:35;;;;;;;6.03;3.30;;;;;;;;;;5033795;28;20027;-80
2023/03/28 10:07:15;;;;;;;5.50;3.30;;;;;;;;;;5025694;28;20120;-82
2023/03/28 10:09:46;;;;;;;;;;;;;;;;;;5043260;28;20837;-81
2023/03/28 10:12:30;;;;;;;2.45;1.77;;;;;;;;;;5031338;28;19936;-84
2023/03/28 10:14:56;;;;;;;3.13;2.00;;;;;;;;;;5046273;28;20430;-84
2023/03/28 10:17:35;;;;;;;2.60;1.70;;;;;;;;;;5042528;28;20025;-81
2023/03/28 10:20:18;;;;;;;4.25;3.03;;;;;;;;;;5032744;28;20024;-82
2023/03/28 10:22:47;;;;;;;3.22;1.90;;;;;;;;;;5041145;28;20029;-83
2023/03/28 10:25:19;;;;;;;6.57;4.45;;;;;;;;;;5030621;28;20020;-80
2023/03/28 10:27:46;;;;;;;3.22;2.50;;;;;;;;;;5043689;28;20029;-82
2023/03/28 10:30:30;;;;;;;5.28;3.28;;;;;;;;;;5031231;28;20044;-84
2023/03/28 10:33:17;;;;;;;2.15;1.42;;;;;;;;;;5052898;28;20509;-81
2023/03/28 10:35:53;;;;;;;1.95;1.55;;;;;;;;;;5047589;28;20434;-83
2023/03/28 10:38:19;;;;;;;3.28;2.28;;;;;;;;;;5042696;28;20095;-82
2023/03/28 10:40:58;;;;;;;3.05;1.80;;;;;;;;;;5025583;28;20412;-81
2023/03/28 10:43:31;;;;;;;5.68;3.20;;;;;;;;;;5040106;28;20022;-83
2023/03/28 10:46:01;;;;;;;3.15;1.90;;;;;;;;;;5026149;28;20115;-82
2023/03/28 10:48:30;;;;;;;4.50;2.38;;;;;;;;;;5037855;28;20025;-81
2023/03/28 10:50:58;;;;;;;1.77;1.23;;;;;;;;;;5018900;28;20029;-80
2023/03/28 10:54:05;;;;;;;5.22;2.60;;;;;;;;;;5043628;28;20044;-83
2023/03/28 10:56:37;;;;;;;5.43;3.33;;;;;;;;;;5035087;28;20029;-83
2023/03/28 10:59:11;;;;;;;2.20;1.92;;;;;;;;;;5047328;28;20108;-80
2023/03/28 11:01:48;;;;;;;4.05;1.77;;;;;;;;;;5041367;28;20033;-83
2023/03/28 11:04:16;;;;;;;6.70;3.22;;;;;;;;;;5038941;28;20123;-82
2023/03/28 11:06:56;;;;;;;4.28;3.40;;;;;;;;;;5039216;28;20091;-80
2023/03/28 11:09:22;;;;;;;;;;;;;;;;;;5035187;28;20429;-81
2023/03/28 11:12:05;;;;;;;2.75;1.92;;;;;;;;;;5040188;28;19966;-85
2023/03/28 11:14:59;;;;;;;1.52;1.27;;;;;;;;;;5023755;28;20040;-84
2023/03/28 11:18:00;;;;;;;2.50;2.05;;;;;;;;;;5037624;28;20057;-84
2023/03/28 11:20:33;;;;;;;1.98;1.70;;;;;;;;;;5034353;28;20129;-83
2023/03/28 11:23:16;;;;;;;5.50;3.17;;;;;;;;;;5043042;28;20025;-82
2023/03/28 11:25:51;;;;;;;2.50;2.08;;;;;;;;;;5034736;28;20032;-82
2023/03/28 11:28:42;;;;;;;3.25;2.15;;;;;;;;;;5038883;28;20497;-80
2023/03/28 11:31:14;;;;;;;2.78;1.67;;;;;;;;;;5034814;28;20491;-79
2023/03/28 11:33:48;;;;;;;1.10;1.00;;;;;;;;;;5024134;28;20563;-80
2023/03/28 11:36:20;;;;;;;3.88;2.40;;;;;;;;;;5046669;28;20395;-82
2023/03/28 11:38:52;;;;;;;4.40;2.33;;;;;;;;;;5023366;28;20057;-82
2023/03/28 11:41:26;;;;;;;1.23;1.13;;;;;;;;;;5035568;28;20048;-82
2023/03/28 11:44:03;;;;;;;1.50;1.35;;;;;;;;;;5037316;28;20038;-81
2023/03/28 11:46:33;;;;;;;3.58;1.98;;;;;;;;;;5038404;28;20104;-81
2023/03/28 11:48:59;;;;;;;2.80;1.65;;;;;;;;;;5027210;28;20029;-83
2023/03/28 11:51:36;;;;;;;1.73;1.60;;;;;;;;;;5034861;28;20095;-80
2023/03/28 11:54:10;;;;;;;1.85;1.13;;;;;;;;;;5034937;28;20053;-82
2023/03/28 11:56:57;;;;;;;8.05;2.42;;;;;;;;;;5041024;28;20100;-81
2023/03/28 11:59:49;;;;;;;1.75;1.40;;;;;;;;;;5021329;28;20037;-82
2023/03/28 12:02:38;;;;;;;1.90;1.45;;;;;;;;;;5032197;28;20026;-87
2023/03/28 12:05:09;;;;;;;3.92;2.63;;;;;;;;;;5033555;28;20045;-82
2023/03/28 12:07:45;;;;;;;1.70;1.27;;;;;;;;;;5036081;28;20044;-82
2023/03/28 12:10:27;;;;;;;3.47;2.45;;;;;;;;;;5034652;28;20057;-81
2023/03/28 12:13:08;;;;;;;2.55;2.35;;;;;;;;;;5037641;28;20026;-81
2023/03/28 12:15:33;;;;;;;2.72;1.63;;;;;;;;;;5034444;28;20044;-81
2023/03/28 12:18:03;;;;;;;3.67;2.00;;;;;;;;;;5039627;28;20133;-80
2023/03/28 12:20:38;;;;;;;3.42;1.85;;;;;;;;;;5031832;28;20025;-80
2023/03/28 12:23:38;;;;;;;2.45;1.90;;;;;;;;;;5022254;28;20037;-80
2023/03/28 12:26:06;;;;;;;1.52;1.08;;;;;;;;;;4967254;28;20051;-83
2023/03/28 12:28:42;;;;;;;5.22;2.10;;;;;;;;;;5044905;28;20477;-83
2023/03/28 12:31:17;;;;;;;3.08;1.65;;;;;;;;;;5037294;28;20025;-82
2023/03/28 12:34:02;;;;;;;1.67;1.52;;;;;;;;;;5045506;28;20448;-83
2023/03/28 12:36:39;;;;;;;2.33;2.13;;;;;;;;;;5050891;28;20107;-84
2023/03/28 12:39:43;;;;;;;2.25;1.77;;;;;;;;;;5051018;28;20021;-81
2023/03/28 12:42:11;;;;;;;5.88;2.05;;;;;;;;;;5051920;28;20029;-84
2023/03/28 12:44:50;;;;;;;2.15;1.58;;;;;;;;;;5052246;28;20095;-85
2023/03/28 12:47:21;;;;;;;2.10;1.65;;;;;;;;;;5051338;28;20518;-79
2023/03/28 12:50:08;;;;;;;2.28;1.40;;;;;;;;;;5045691;28;20032;-82
2023/03/28 12:52:36;;;;;;;2.22;1.40;;;;;;;;;;5050164;28;20028;-80
2023/03/28 12:55:08;;;;;;;2.33;1.65;;;;;;;;;;5049629;28;20025;-80
2023/03/28 12:57:39;;;;;;;3.35;2.03;;;;;;;;;;5049424;28;20029;-81
2023/03/28 13:00:12;;;;;;;3.42;1.75;;;;;;;;;;5033328;28;20070;-79
2023/03/28 13:02:52;;;;;;;1.75;1.40;;;;;;;;;;5050126;28;20029;-82
2023/03/28 13:05:46;;;;;;;1.00;0.95;;;;;;;;;;5050357;28;20500;-82
2023/03/28 13:08:54;;;;;;;1.23;1.15;;;;;;;;;;5048806;28;20052;-85
2023/03/28 13:11:47;;;;;;;3.25;2.38;;;;;;;;;;5049160;28;20033;-82
2023/03/28 13:14:39;;;;;;;2.65;1.83;;;;;;;;;;5050589;28;20564;-81
2023/03/28 13:17:28;;;;;;;2.50;1.92;;;;;;;;;;5050899;28;20499;-79
2023/03/28 13:20:13;;;;;;;2.97;2.45;;;;;;;;;;5050744;28;20134;-80
2023/03/28 13:22:48;;;;;;;1.52;1.15;;;;;;;;;;5032280;28;20016;-81
2023/03/28 13:25:35;;;;;;;1.15;1.05;;;;;;;;;;5049897;28;20481;-83
2023/03/28 13:28:10;;;;;;;3.75;1.52;;;;;;;;;;5050793;28;20115;-80
2023/03/28 13:30:36;;;;;;;1.50;1.13;;;;;;;;;;5032718;28;20469;-83
2023/03/28 13:33:13;;;;;;;3.00;1.65;;;;;;;;;;5033506;28;20064;-80
2023/03/28 13:35:44;;;;;;;1.00;0.95;;;;;;;;;;5049691;28;20464;-81
2023/03/28 13:38:12;;;;;;;2.25;1.88;;;;;;;;;;5032358;28;20074;-81
2023/03/28 13:40:50;;;;;;;1.38;1.27;;;;;;;;;;5031177;28;20374;-80
2023/03/28 13:43:45;;;;;;;1.17;1.08;;;;;;;;;;5048737;28;20429;-82
2023/03/28 13:46:24;;;;;;;2.38;1.75;;;;;;;;;;5048576;28;20078;-79
2023/03/28 13:48:56;;;;;;;3.03;1.10;;;;;;;;;;5032695;28;20061;-82
2023/03/28 13:51:25;;;;;;;3.95;2.28;;;;;;;;;;5049647;28;21071;-81
2023/03/28 13:53:51;;;;;;;1.73;1.40;;;;;;;;;;5050544;28;20063;-81
2023/03/28 13:56:31;;;;;;;2.92;1.65;;;;;;;;;;5050241;28;20269;-80
2023/03/28 13:58:57;;;;;;;2.05;1.33;;;;;;;;;;5049154;28;20385;-83
2023/03/28 14:01:25;;;;;;;1.58;1.00;;;;;;;;;;5047701;28;20063;-82
2023/03/28 14:03:53;;;;;;;1.77;1.30;;;;;;;;;;5050072;28;20031;-83
2023/03/28 14:06:24;;;;;;;2.03;1.60;;;;;;;;;;5053869;28;20029;-85
2023/03/28 14:08:53;;;;;;;3.90;2.00;;;;;;;;;;5049301;28;20036;-79
2023/03/28 14:11:22;;;;;;;1.98;1.42;;;;;;;;;;5053642;28;20377;-81
2023/03/28 14:13:52;;;;;;;3.53;1.83;;;;;;;;;;5055608;28;20033;-82
2023/03/28 14:16:18;;;;;;;2.55;1.75;;;;;;;;;;5033481;28;20028;-84
2023/03/28 14:18:46;;;;;;;1.10;0.98;;;;;;;;;;5054220;28;20397;-81
2023/03/28 14:21:12;;;;;;;1.67;1.15;;;;;;;;;;5052491;28;20030;-84
2023/03/28 14:23:40;;;;;;;2.58;1.58;;;;;;;;;;5033414;28;20031;-85
2023/03/28 14:26:17;;;;;;;2.35;1.42;;;;;;;;;;5036097;28;20029;-82
2023/03/28 14:28:44;;;;;;;2.42;1.48;;;;;;;;;;5037189;28;20020;-84
2023/03/28 14:31:27;;;;;;;3.40;1.88;;;;;;;;;;5048607;28;20469;-81
2023/03/28 14:33:52;;;;;;;3.03;1.83;;;;;;;;;;5031722;28;20069;-85
2023/03/28 14:36:18;;;;;;;1.92;1.45;;;;;;;;;;5050928;28;20059;-82
2023/03/28 14:38:43;;;;;;;2.03;1.50;;;;;;;;;;5053497;28;20032;-82
2023/03/28 14:41:18;;;;;;;2.80;1.23;;;;;;;;;;5034521;28;20037;-83
2023/03/28 14:43:50;;;;;;;1.33;1.23;;;;;;;;;;5052199;28;20025;-84
2023/03/28 14:46:16;;;;;;;1.15;0.98;;;;;;;;;;5035195;28;20035;-86
2023/03/28 14:48:43;;;;;;;1.42;1.27;;;;;;;;;;5035907;28;20032;-84
2023/03/28 14:51:12;;;;;;;2.22;0.98;;;;;;;;;;5054045;28;20079;-81
2023/03/28 14:53:41;;;;;;;3.33;1.85;;;;;;;;;;5035056;28;20052;-84
2023/03/28 14:56:10;;;;;;;2.60;1.20;;;;;;;;;;5053547;28;20051;-82
2023/03/28 14:58:38;;;;;;;2.13;1.33;;;;;;;;;;5052915;28;20293;-82
2023/03/28 15:01:04;;;;;;;1.75;1.65;;;;;;;;;;5053200;28;20029;-84
2023/03/28 15:03:44;;;;;;;3.58;0.95;;;;;;;;;;5052024;28;20155;-83
2023/03/28 15:06:15;;;;;;;2.90;1.83;;;;;;;;;;5052583;28;20029;-83
2023/03/28 15:08:41;;;;;;;2.92;1.50;;;;;;;;;;5053745;28;20043;-85
2023/03/28 15:11:14;;;;;;;1.38;1.20;;;;;;;;;;5053130;28;20036;-83